sensor_id;sensor_type;location;lat;lon;timestamp;pressure;altitude;pressure_sealevel;temperature;humidity
20228;BME280;12195;55.790;37.572;2023-03-01T00:00:07;98984.87;;;-4.23;62.35
20228;BME280;12195;55.790;37.572;2023-03-01T00:02:41;98995.22;;;-4.38;61.50
20228;BME280;12195;55.790;37.572;2023-03-01T00:05:13;98989.30;;;-4.47;61.46
20228;BME280;12195;55.790;37.572;2023-03-01T00:07:45;98988.48;;;-4.51;61.79
20228;BME280;12195;55.790;37.572;2023-03-01T00:10:17;98995.20;;;-4.35;62.25
20228;BME280;12195;55.790;37.572;2023-03-01T00:12:49;98990.11;;;-4.41;61.93
20228;BME280;12195;55.790;37.572;2023-03-01T00:15:21;98979.04;;;-4.43;61.52
20228;BME280;12195;55.790;37.572;2023-03-01T00:17:54;98983.38;;;-4.55;61.00
20228;BME280;12195;55.790;37.572;2023-03-01T00:20:25;98967.20;;;-4.57;61.40
20228;BME280;12195;55.790;37.572;2023-03-01T00:22:57;98978.30;;;-4.57;61.24
20228;BME280;12195;55.790;37.572;2023-03-01T00:25:30;98972.23;;;-4.47;61.16
20228;BME280;12195;55.790;37.572;2023-03-01T00:28:02;98976.55;;;-4.50;61.29
20228;BME280;12195;55.790;37.572;2023-03-01T00:30:34;98977.37;;;-4.48;61.03
20228;BME280;12195;55.790;37.572;2023-03-01T00:33:06;98977.36;;;-4.45;60.56
20228;BME280;12195;55.790;37.572;2023-03-01T00:35:38;98977.36;;;-4.45;60.84
20228;BME280;12195;55.790;37.572;2023-03-01T00:38:11;98977.34;;;-4.42;61.06
20228;BME280;12195;55.790;37.572;2023-03-01T00:40:43;98975.68;;;-4.51;60.56
20228;BME280;12195;55.790;37.572;2023-03-01T00:43:15;98979.99;;;-4.56;60.79
20228;BME280;12195;55.790;37.572;2023-03-01T00:45:47;98977.20;;;-4.27;60.70
20228;BME280;12195;55.790;37.572;2023-03-01T00:48:20;98984.16;;;-4.41;59.19
20228;BME280;12195;55.790;37.572;2023-03-01T00:50:52;98973.05;;;-4.42;59.56
20228;BME280;12195;55.790;37.572;2023-03-01T00:53:24;98966.16;;;-4.34;60.38
20228;BME280;12195;55.790;37.572;2023-03-01T00:55:57;98970.56;;;-4.51;60.14
20228;BME280;12195;55.790;37.572;2023-03-01T00:58:30;98962.08;;;-4.57;60.29
20228;BME280;12195;55.790;37.572;2023-03-01T01:01:10;98966.32;;;-4.55;60.53
20228;BME280;12195;55.790;37.572;2023-03-01T01:03:45;98958.73;;;-4.70;60.42
20228;BME280;12195;55.790;37.572;2023-03-01T01:06:20;98962.16;;;-4.69;60.64
20228;BME280;12195;55.790;37.572;2023-03-01T01:08:53;98968.95;;;-4.65;61.12
20228;BME280;12195;55.790;37.572;2023-03-01T01:11:27;98965.59;;;-4.75;60.93
20228;BME280;12195;55.790;37.572;2023-03-01T01:14:01;98965.66;;;-4.81;60.75
20228;BME280;12195;55.790;37.572;2023-03-01T01:16:33;98969.84;;;-4.74;60.86
20228;BME280;12195;55.790;37.572;2023-03-01T01:19:05;98953.59;;;-4.64;60.42
20228;BME280;12195;55.790;37.572;2023-03-01T01:21:38;98965.50;;;-4.58;60.21
20228;BME280;12195;55.790;37.572;2023-03-01T01:24:10;98959.59;;;-4.68;60.38
20228;BME280;12195;55.790;37.572;2023-03-01T01:26:43;98972.31;;;-4.56;60.01
20228;BME280;12195;55.790;37.572;2023-03-01T01:29:15;98971.41;;;-4.49;59.93
20228;BME280;12195;55.790;37.572;2023-03-01T01:31:48;98972.31;;;-4.57;60.16
20228;BME280;12195;55.790;37.572;2023-03-01T01:34:21;98972.26;;;-4.51;60.11
20228;BME280;12195;55.790;37.572;2023-03-01T01:36:54;98974.00;;;-4.53;60.09
20228;BME280;12195;55.790;37.572;2023-03-01T01:39:26;98972.33;;;-4.59;60.04
20228;BME280;12195;55.790;37.572;2023-03-01T01:41:58;98988.55;;;-4.60;60.08
20228;BME280;12195;55.790;37.572;2023-03-01T01:44:33;98976.62;;;-4.64;60.19
20228;BME280;12195;55.790;37.572;2023-03-01T01:47:05;98979.19;;;-4.62;60.20
20228;BME280;12195;55.790;37.572;2023-03-01T01:49:52;98981.67;;;-4.50;60.29
20228;BME280;12195;55.790;37.572;2023-03-01T01:52:27;98973.13;;;-4.54;59.77
20228;BME280;12195;55.790;37.572;2023-03-01T01:55:07;98977.43;;;-4.56;60.22
20228;BME280;12195;55.790;37.572;2023-03-01T01:57:43;98976.55;;;-4.52;60.76
20228;BME280;12195;55.790;37.572;2023-03-01T02:00:18;98969.77;;;-4.59;60.76
20228;BME280;12195;55.790;37.572;2023-03-01T02:03:03;98978.32;;;-4.63;60.58
20228;BME280;12195;55.790;37.572;2023-03-01T02:05:53;98973.20;;;-4.64;61.15
20228;BME280;12195;55.790;37.572;2023-03-01T02:08:27;98970.64;;;-4.63;61.64
20228;BME280;12195;55.790;37.572;2023-03-01T02:11:01;98963.77;;;-4.56;62.14
20228;BME280;12195;55.790;37.572;2023-03-01T02:13:35;98974.09;;;-4.68;62.04
20228;BME280;12195;55.790;37.572;2023-03-01T02:16:13;98969.91;;;-4.80;61.77
20228;BME280;12195;55.790;37.572;2023-03-01T02:18:46;98974.22;;;-4.89;62.02
20228;BME280;12195;55.790;37.572;2023-03-01T02:21:37;98976.82;;;-4.95;62.57
20228;BME280;12195;55.790;37.572;2023-03-01T02:24:15;98977.70;;;-5.01;62.76
20228;BME280;12195;55.790;37.572;2023-03-01T02:26:47;98978.52;;;-4.93;63.19
20228;BME280;12195;55.790;37.572;2023-03-01T02:29:19;98981.83;;;-4.79;63.09
20228;BME280;12195;55.790;37.572;2023-03-01T02:31:52;98989.58;;;-4.91;62.89
20228;BME280;12195;55.790;37.572;2023-03-01T02:34:28;98976.77;;;-4.88;62.51
20228;BME280;12195;55.790;37.572;2023-03-01T02:37:13;98985.33;;;-4.96;62.57
20228;BME280;12195;55.790;37.572;2023-03-01T02:39:51;98976.84;;;-5.01;62.75
20228;BME280;12195;55.790;37.572;2023-03-01T02:42:23;98982.00;;;-5.07;62.72
20228;BME280;12195;55.790;37.572;2023-03-01T02:44:57;98978.58;;;-5.08;63.07
20228;BME280;12195;55.790;37.572;2023-03-01T02:47:32;98988.85;;;-5.12;63.32
20228;BME280;12195;55.790;37.572;2023-03-01T02:53:03;98987.17;;;-5.19;63.41
20228;BME280;12195;55.790;37.572;2023-03-01T02:55:23;98988.86;;;-5.23;63.60
20228;BME280;12195;55.790;37.572;2023-03-01T02:57:56;98985.48;;;-5.26;63.80
20228;BME280;12195;55.790;37.572;2023-03-01T03:00:32;98989.77;;;-5.31;63.85
20228;BME280;12195;55.790;37.572;2023-03-01T03:03:04;98997.44;;;-5.31;64.14
20228;BME280;12195;55.790;37.572;2023-03-01T03:05:37;98994.88;;;-5.33;64.37
20228;BME280;12195;55.790;37.572;2023-03-01T03:08:09;98982.92;;;-5.29;64.56
20228;BME280;12195;55.790;37.572;2023-03-01T03:10:42;98995.71;;;-5.28;64.43
20228;BME280;12195;55.790;37.572;2023-03-01T03:13:14;98994.02;;;-5.29;64.57
20228;BME280;12195;55.790;37.572;2023-03-01T03:15:47;98992.33;;;-5.28;64.42
20228;BME280;12195;55.790;37.572;2023-03-01T03:18:20;98997.41;;;-5.27;64.73
20228;BME280;12195;55.790;37.572;2023-03-01T03:20:53;98999.95;;;-5.25;64.77
20228;BME280;12195;55.790;37.572;2023-03-01T03:23:25;99000.86;;;-5.34;64.60
20228;BME280;12195;55.790;37.572;2023-03-01T03:25:57;99001.66;;;-5.21;64.91
20228;BME280;12195;55.790;37.572;2023-03-01T03:28:29;98991.47;;;-5.33;64.56
20228;BME280;12195;55.790;37.572;2023-03-01T03:31:02;98989.77;;;-5.33;64.72
20228;BME280;12195;55.790;37.572;2023-03-01T03:33:34;99001.69;;;-5.33;64.74
20228;BME280;12195;55.790;37.572;2023-03-01T03:36:07;98997.44;;;-5.33;64.94
20228;BME280;12195;55.790;37.572;2023-03-01T03:38:40;98998.30;;;-5.34;65.00
20228;BME280;12195;55.790;37.572;2023-03-01T03:41:12;99005.94;;;-5.25;65.25
20228;BME280;12195;55.790;37.572;2023-03-01T03:43:45;99008.53;;;-5.37;65.09
20228;BME280;12195;55.790;37.572;2023-03-01T03:46:17;99009.39;;;-5.36;65.15
20228;BME280;12195;55.790;37.572;2023-03-01T03:48:50;99005.15;;;-5.43;65.13
20228;BME280;12195;55.790;37.572;2023-03-01T03:51:22;99003.45;;;-5.49;65.17
20228;BME280;12195;55.790;37.572;2023-03-01T03:53:55;99007.70;;;-5.42;65.59
20228;BME280;12195;55.790;37.572;2023-03-01T03:56:27;99004.31;;;-5.47;65.65
20228;BME280;12195;55.790;37.572;2023-03-01T03:59:00;99001.73;;;-5.42;65.74
20228;BME280;12195;55.790;37.572;2023-03-01T04:01:33;99000.83;;;-5.26;65.96
20228;BME280;12195;55.790;37.572;2023-03-01T04:04:05;99002.59;;;-5.39;65.48
20228;BME280;12195;55.790;37.572;2023-03-01T04:06:38;99011.92;;;-5.27;65.57
20228;BME280;12195;55.790;37.572;2023-03-01T04:09:10;99007.67;;;-5.36;65.55
20228;BME280;12195;55.790;37.572;2023-03-01T04:11:43;99006.84;;;-5.35;65.57
20228;BME280;12195;55.790;37.572;2023-03-01T04:14:15;99011.09;;;-5.35;65.62
20228;BME280;12195;55.790;37.572;2023-03-01T04:16:47;99012.82;;;-5.39;65.60
20228;BME280;12195;55.790;37.572;2023-03-01T04:19:19;99012.78;;;-5.36;65.94
20228;BME280;12195;55.790;37.572;2023-03-01T04:21:51;99013.64;;;-5.32;65.89
20228;BME280;12195;55.790;37.572;2023-03-01T04:24:23;99017.03;;;-5.32;65.91
20228;BME280;12195;55.790;37.572;2023-03-01T04:26:56;99017.86;;;-5.24;65.75
20228;BME280;12195;55.790;37.572;2023-03-01T04:29:29;99020.41;;;-5.19;65.39
20228;BME280;12195;55.790;37.572;2023-03-01T04:32:01;99020.41;;;-5.19;65.39
20228;BME280;12195;55.790;37.572;2023-03-01T04:34:34;99017.86;;;-5.21;65.61
20228;BME280;12195;55.790;37.572;2023-03-01T04:37:06;99022.97;;;-5.21;65.57
20228;BME280;12195;55.790;37.572;2023-03-01T04:39:40;99029.78;;;-5.23;65.55
20228;BME280;12195;55.790;37.572;2023-03-01T04:42:15;99023.84;;;-5.25;65.61
20228;BME280;12195;55.790;37.572;2023-03-01T04:44:50;99028.09;;;-5.18;65.78
20228;BME280;12195;55.790;37.572;2023-03-01T04:47:22;99029.78;;;-5.15;65.71
20228;BME280;12195;55.790;37.572;2023-03-01T04:49:55;99034.86;;;-5.05;65.81
20228;BME280;12195;55.790;37.572;2023-03-01T04:52:27;99030.52;;;-4.92;65.84
20228;BME280;12195;55.790;37.572;2023-03-01T04:55:00;99034.76;;;-4.84;65.28
20228;BME280;12195;55.790;37.572;2023-03-01T04:57:32;99034.77;;;-4.87;65.17
20228;BME280;12195;55.790;37.572;2023-03-01T05:00:07;99039.05;;;-4.87;65.20
20228;BME280;12195;55.790;37.572;2023-03-01T05:02:57;99032.20;;;-4.84;65.12
20228;BME280;12195;55.790;37.572;2023-03-01T05:05:35;99030.45;;;-4.77;65.06
20228;BME280;12195;55.790;37.572;2023-03-01T05:08:08;99036.40;;;-4.74;65.01
20228;BME280;12195;55.790;37.572;2023-03-01T05:10:43;99040.63;;;-4.62;65.05
20228;BME280;12195;55.790;37.572;2023-03-01T05:13:17;99040.59;;;-4.58;65.01
20228;BME280;12195;55.790;37.572;2023-03-01T05:15:58;99051.63;;;-4.50;64.98
20228;BME280;12195;55.790;37.572;2023-03-01T05:18:32;99047.30;;;-4.36;64.55
20228;BME280;12195;55.790;37.572;2023-03-01T05:21:10;99044.58;;;-4.12;64.30
20228;BME280;12195;55.790;37.572;2023-03-01T05:23:44;99050.24;;;-3.75;63.63
20228;BME280;12195;55.790;37.572;2023-03-01T05:26:19;99055.75;;;-3.27;64.26
20228;BME280;12195;55.790;37.572;2023-03-01T05:28:56;99049.11;;;-2.70;60.95
20228;BME280;12195;55.790;37.572;2023-03-01T05:31:30;99048.09;;;-2.59;60.02
20228;BME280;12195;55.790;37.572;2023-03-01T05:34:02;99048.13;;;-2.62;59.72
20228;BME280;12195;55.790;37.572;2023-03-01T05:36:35;99054.92;;;-2.58;60.51
20228;BME280;12195;55.790;37.572;2023-03-01T05:39:09;99057.66;;;-2.71;60.10
20228;BME280;12195;55.790;37.572;2023-03-01T05:41:40;99060.36;;;-2.82;60.07
20228;BME280;12195;55.790;37.572;2023-03-01T05:44:13;99063.85;;;-2.87;60.13
20228;BME280;12195;55.790;37.572;2023-03-01T05:46:45;99066.49;;;-2.92;60.08
20228;BME280;12195;55.790;37.572;2023-03-01T05:49:18;99066.50;;;-2.93;60.38
20228;BME280;12195;55.790;37.572;2023-03-01T05:51:51;99062.17;;;-2.90;60.47
20228;BME280;12195;55.790;37.572;2023-03-01T05:54:25;99072.50;;;-2.93;60.45
20228;BME280;12195;55.790;37.572;2023-03-01T05:56:57;99078.53;;;-2.97;60.32
20228;BME280;12195;55.790;37.572;2023-03-01T05:59:29;99077.64;;;-2.93;60.35
20228;BME280;12195;55.790;37.572;2023-03-01T06:02:01;99079.31;;;-2.90;60.06
20228;BME280;12195;55.790;37.572;2023-03-01T06:04:34;99077.41;;;-2.75;60.67
20228;BME280;12195;55.790;37.572;2023-03-01T06:07:07;99087.70;;;-2.78;60.05
20228;BME280;12195;55.790;37.572;2023-03-01T06:09:39;99086.00;;;-2.77;60.48
20228;BME280;12195;55.790;37.572;2023-03-01T06:12:11;99091.97;;;-2.77;59.76
20228;BME280;12195;55.790;37.572;2023-03-01T06:14:45;99098.72;;;-2.67;60.35
20228;BME280;12195;55.790;37.572;2023-03-01T06:17:19;99088.45;;;-2.68;59.70
20228;BME280;12195;55.790;37.572;2023-03-01T06:19:52;99102.83;;;-2.54;60.03
20228;BME280;12195;55.790;37.572;2023-03-01T06:22:25;99097.78;;;-2.60;58.89
20228;BME280;12195;55.790;37.572;2023-03-01T06:25:01;99089.22;;;-2.62;58.97
20228;BME280;12195;55.790;37.572;2023-03-01T06:27:38;99094.25;;;-2.54;58.95
20228;BME280;12195;55.790;37.572;2023-03-01T06:30:13;99094.92;;;-2.37;58.75
20228;BME280;12195;55.790;37.572;2023-03-01T06:32:47;99090.38;;;-2.19;58.34
20228;BME280;12195;55.790;37.572;2023-03-01T06:35:20;99095.27;;;-2.04;58.18
20228;BME280;12195;55.790;37.572;2023-03-01T06:37:54;99102.92;;;-1.98;58.34
20228;BME280;12195;55.790;37.572;2023-03-01T06:40:27;99103.59;;;-1.87;58.24
20228;BME280;12195;55.790;37.572;2023-03-01T06:43:00;99099.89;;;-1.69;58.22
20228;BME280;12195;55.790;37.572;2023-03-01T06:45:33;99103.17;;;-1.60;57.83
20228;BME280;12195;55.790;37.572;2023-03-01T06:48:07;99101.33;;;-1.52;57.37
20228;BME280;12195;55.790;37.572;2023-03-01T06:50:40;99100.81;;;-1.23;57.85
20228;BME280;12195;55.790;37.572;2023-03-01T06:53:13;99097.50;;;-1.30;56.32
20228;BME280;12195;55.790;37.572;2023-03-01T06:55:45;99105.94;;;-1.22;56.91
20228;BME280;12195;55.790;37.572;2023-03-01T06:58:18;99099.62;;;-1.04;56.38
20228;BME280;12195;55.790;37.572;2023-03-01T07:00:51;99099.23;;;-0.85;56.09
20228;BME280;12195;55.790;37.572;2023-03-01T07:03:23;99097.36;;;-0.77;55.33
20228;BME280;12195;55.790;37.572;2023-03-01T07:05:56;99105.77;;;-0.67;55.09
20228;BME280;12195;55.790;37.572;2023-03-01T07:08:29;99093.66;;;-0.64;55.07
20228;BME280;12195;55.790;37.572;2023-03-01T07:11:02;99106.52;;;-0.62;54.61
20228;BME280;12195;55.790;37.572;2023-03-01T07:13:34;99105.91;;;-0.73;55.38
20228;BME280;12195;55.790;37.572;2023-03-01T07:16:07;99115.48;;;-0.80;55.20
20228;BME280;12195;55.790;37.572;2023-03-01T07:18:39;99108.72;;;-0.85;54.99
20228;BME280;12195;55.790;37.572;2023-03-01T07:21:13;99122.60;;;-0.94;55.17
20228;BME280;12195;55.790;37.572;2023-03-01T07:23:48;99124.48;;;-1.03;54.54
20228;BME280;12195;55.790;37.572;2023-03-01T07:26:20;99130.57;;;-1.07;55.11
20228;BME280;12195;55.790;37.572;2023-03-01T07:28:54;99132.34;;;-1.09;55.86
20228;BME280;12195;55.790;37.572;2023-03-01T07:31:26;99131.31;;;-1.01;55.88
20228;BME280;12195;55.790;37.572;2023-03-01T07:34:02;99127.53;;;-0.82;55.48
20228;BME280;12195;55.790;37.572;2023-03-01T07:36:35;99131.48;;;-0.64;55.35
20228;BME280;12195;55.790;37.572;2023-03-01T07:39:07;99143.02;;;-0.39;55.33
20228;BME280;12195;55.790;37.572;2023-03-01T07:41:39;99139.96;;;-0.17;54.60
20228;BME280;12195;55.790;37.572;2023-03-01T07:44:12;99145.66;;;-0.03;54.01
20228;BME280;12195;55.790;37.572;2023-03-01T07:46:44;99142.22;;;-0.02;53.85
20228;BME280;12195;55.790;37.572;2023-03-01T07:49:17;99140.59;;;-0.06;54.44
20228;BME280;12195;55.790;37.572;2023-03-01T07:51:50;99149.02;;;0.03;54.37
20228;BME280;12195;55.790;37.572;2023-03-01T07:54:23;99143.77;;;0.05;54.44
20228;BME280;12195;55.790;37.572;2023-03-01T07:56:57;99144.56;;;0.09;53.55
20228;BME280;12195;55.790;37.572;2023-03-01T07:59:30;99147.17;;;0.08;53.88
20228;BME280;12195;55.790;37.572;2023-03-01T08:02:03;99153.02;;;0.16;53.38
20228;BME280;12195;55.790;37.572;2023-03-01T08:04:36;99148.81;;;0.12;53.64
20228;BME280;12195;55.790;37.572;2023-03-01T08:07:09;99142.81;;;0.09;53.58
20228;BME280;12195;55.790;37.572;2023-03-01T08:09:41;99147.80;;;0.19;54.00
20228;BME280;12195;55.790;37.572;2023-03-01T08:12:13;99148.30;;;0.34;53.08
20228;BME280;12195;55.790;37.572;2023-03-01T08:14:48;99143.07;;;0.37;54.03
20228;BME280;12195;55.790;37.572;2023-03-01T08:17:21;99136.83;;;0.46;53.45
20228;BME280;12195;55.790;37.572;2023-03-01T08:19:53;99142.14;;;0.40;52.82
20228;BME280;12195;55.790;37.572;2023-03-01T08:22:27;99139.63;;;0.37;53.60
20228;BME280;12195;55.790;37.572;2023-03-01T08:25:00;99141.56;;;0.27;53.83
20228;BME280;12195;55.790;37.572;2023-03-01T08:27:32;99148.06;;;0.07;54.23
20228;BME280;12195;55.790;37.572;2023-03-01T08:30:06;99155.00;;;0.03;54.35
20228;BME280;12195;55.790;37.572;2023-03-01T08:32:39;99151.05;;;-0.13;54.99
20228;BME280;12195;55.790;37.572;2023-03-01T08:35:12;99154.52;;;-0.14;54.43
20228;BME280;12195;55.790;37.572;2023-03-01T08:37:45;99163.09;;;-0.12;54.44
20228;BME280;12195;55.790;37.572;2023-03-01T08:40:19;99173.55;;;-0.20;54.44
20228;BME280;12195;55.790;37.572;2023-03-01T08:42:51;99167.64;;;-0.25;54.10
20228;BME280;12195;55.790;37.572;2023-03-01T08:45:24;99175.05;;;-0.08;54.44
20228;BME280;12195;55.790;37.572;2023-03-01T08:47:57;99170.88;;;-0.15;54.33
20228;BME280;12195;55.790;37.572;2023-03-01T08:50:29;99172.63;;;-0.17;53.78
20228;BME280;12195;55.790;37.572;2023-03-01T08:53:02;99176.73;;;-0.07;54.36
20228;BME280;12195;55.790;37.572;2023-03-01T08:55:35;99172.27;;;0.01;54.31
20228;BME280;12195;55.790;37.572;2023-03-01T08:58:08;99173.44;;;-0.14;54.05
20228;BME280;12195;55.790;37.572;2023-03-01T09:00:41;99174.23;;;-0.12;53.45
20228;BME280;12195;55.790;37.572;2023-03-01T09:03:16;99179.34;;;-0.09;54.38
20228;BME280;12195;55.790;37.572;2023-03-01T09:05:49;99177.39;;;0.03;54.24
20228;BME280;12195;55.790;37.572;2023-03-01T09:08:22;99186.63;;;0.13;53.44
20228;BME280;12195;55.790;37.572;2023-03-01T09:10:56;99180.16;;;0.33;54.79
20228;BME280;12195;55.790;37.572;2023-03-01T09:13:28;99184.55;;;0.28;53.04
20228;BME280;12195;55.790;37.572;2023-03-01T09:16:03;99183.13;;;0.15;53.15
20228;BME280;12195;55.790;37.572;2023-03-01T09:18:40;99186.77;;;0.07;53.69
20228;BME280;12195;55.790;37.572;2023-03-01T09:21:15;99172.17;;;0.04;53.05
20228;BME280;12195;55.790;37.572;2023-03-01T09:23:50;99190.78;;;0.20;53.59
20228;BME280;12195;55.790;37.572;2023-03-01T09:26:23;99174.20;;;0.30;52.35
20228;BME280;12195;55.790;37.572;2023-03-01T09:28:56;99169.98;;;0.26;52.64
20228;BME280;12195;55.790;37.572;2023-03-01T09:31:43;99171.64;;;0.28;53.05
20228;BME280;12195;55.790;37.572;2023-03-01T09:34:16;99173.52;;;0.22;52.80
20228;BME280;12195;55.790;37.572;2023-03-01T09:36:52;99186.86;;;0.40;53.47
20228;BME280;12195;55.790;37.572;2023-03-01T09:39:26;99174.59;;;0.50;52.21
20228;BME280;12195;55.790;37.572;2023-03-01T09:42:02;99178.48;;;0.67;52.16
20228;BME280;12195;55.790;37.572;2023-03-01T09:45:01;99172.10;;;0.82;51.47
20228;BME280;12195;55.790;37.572;2023-03-01T09:47:35;99174.02;;;0.74;51.73
20228;BME280;12195;55.790;37.572;2023-03-01T09:50:16;99178.36;;;0.72;51.67
20228;BME280;12195;55.790;37.572;2023-03-01T09:53:04;99181.87;;;0.69;51.17
20228;BME280;12195;55.790;37.572;2023-03-01T09:55:54;99186.30;;;0.64;51.86
20228;BME280;12195;55.790;37.572;2023-03-01T10:04:49;99191.52;;;0.98;51.63
20228;BME280;12195;55.790;37.572;2023-03-01T10:07:48;99186.21;;;1.36;51.19
20228;BME280;12195;55.790;37.572;2023-03-01T10:10:27;99185.81;;;1.51;49.52
20228;BME280;12195;55.790;37.572;2023-03-01T10:15:56;99196.25;;;1.14;49.73
20228;BME280;12195;55.790;37.572;2023-03-01T10:18:30;99200.48;;;1.17;49.62
20228;BME280;12195;55.790;37.572;2023-03-01T10:21:13;99194.86;;;1.35;49.84
20228;BME280;12195;55.790;37.572;2023-03-01T10:23:50;99203.92;;;1.51;49.36
20228;BME280;12195;55.790;37.572;2023-03-01T10:26:48;99204.23;;;1.71;49.04
20228;BME280;12195;55.790;37.572;2023-03-01T10:29:31;99205.51;;;1.87;48.60
20228;BME280;12195;55.790;37.572;2023-03-01T10:31:56;99197.44;;;1.97;48.50
20228;BME280;12195;55.790;37.572;2023-03-01T10:34:31;99196.96;;;1.83;47.92
20228;BME280;12195;55.790;37.572;2023-03-01T10:37:13;99189.88;;;1.90;48.04
20228;BME280;12195;55.790;37.572;2023-03-01T10:42:32;99199.13;;;1.98;47.66
20228;BME280;12195;55.790;37.572;2023-03-01T10:48:06;99187.56;;;2.10;47.51
20228;BME280;12195;55.790;37.572;2023-03-01T10:50:39;99185.64;;;2.16;48.01
20228;BME280;12195;55.790;37.572;2023-03-01T10:56:10;99196.45;;;2.30;48.51
20228;BME280;12195;55.790;37.572;2023-03-01T10:59:03;99189.19;;;2.41;46.68
20228;BME280;12195;55.790;37.572;2023-03-01T11:01:36;99174.17;;;2.52;46.84
20228;BME280;12195;55.790;37.572;2023-03-01T11:04:13;99188.77;;;2.55;45.01
20228;BME280;12195;55.790;37.572;2023-03-01T11:06:47;99194.37;;;2.41;45.03
20228;BME280;12195;55.790;37.572;2023-03-01T11:09:23;99187.04;;;2.28;45.57
20228;BME280;12195;55.790;37.572;2023-03-01T11:11:59;99180.96;;;2.29;46.28
20228;BME280;12195;55.790;37.572;2023-03-01T11:14:39;99185.52;;;2.21;47.28
20228;BME280;12195;55.790;37.572;2023-03-01T11:17:31;99190.70;;;2.21;45.95
20228;BME280;12195;55.790;37.572;2023-03-01T11:20:23;99194.07;;;2.23;46.38
20228;BME280;12195;55.790;37.572;2023-03-01T11:23:03;99185.91;;;2.07;45.60
20228;BME280;12195;55.790;37.572;2023-03-01T11:25:40;99180.80;;;1.75;46.18
20228;BME280;12195;55.790;37.572;2023-03-01T11:28:14;99188.86;;;1.65;46.58
20228;BME280;12195;55.790;37.572;2023-03-01T11:31:03;99191.94;;;1.79;47.48
20228;BME280;12195;55.790;37.572;2023-03-01T11:33:50;99193.06;;;1.69;46.50
20228;BME280;12195;55.790;37.572;2023-03-01T11:36:53;99187.09;;;1.67;46.69
20228;BME280;12195;55.790;37.572;2023-03-01T11:39:41;99205.70;;;1.79;47.50
20228;BME280;12195;55.790;37.572;2023-03-01T11:44:54;99205.09;;;1.70;46.66
20228;BME280;12195;55.790;37.572;2023-03-01T11:56:26;99197.59;;;1.91;46.94
20228;BME280;12195;55.790;37.572;2023-03-01T11:58:54;99195.29;;;2.11;46.10
20228;BME280;12195;55.790;37.572;2023-03-01T12:07:00;99216.75;;;2.15;45.07
20228;BME280;12195;55.790;37.572;2023-03-01T12:15:27;99219.48;;;2.10;46.32
20228;BME280;12195;55.790;37.572;2023-03-01T12:18:19;99218.47;;;2.16;45.63
20228;BME280;12195;55.790;37.572;2023-03-01T12:41:01;99211.29;;;1.95;44.17
20228;BME280;12195;55.790;37.572;2023-03-01T12:47:15;99212.36;;;1.57;45.44
20228;BME280;12195;55.790;37.572;2023-03-01T12:49:58;99205.92;;;1.40;45.81
20228;BME280;12195;55.790;37.572;2023-03-01T12:55:26;99209.52;;;1.34;46.75
20228;BME280;12195;55.790;37.572;2023-03-01T12:58:11;99203.83;;;1.22;46.98
20228;BME280;12195;55.790;37.572;2023-03-01T13:00:52;99212.52;;;1.19;46.67
20228;BME280;12195;55.790;37.572;2023-03-01T13:03:28;99206.20;;;1.29;47.83
20228;BME280;12195;55.790;37.572;2023-03-01T13:06:16;99216.89;;;1.16;47.34
20228;BME280;12195;55.790;37.572;2023-03-01T13:11:28;99213.75;;;1.05;46.96
20228;BME280;12195;55.790;37.572;2023-03-01T13:16:56;99206.89;;;1.02;46.87
20228;BME280;12195;55.790;37.572;2023-03-01T13:25:18;99206.71;;;0.75;46.78
20228;BME280;12195;55.790;37.572;2023-03-01T13:27:50;99217.45;;;0.58;47.56
20228;BME280;12195;55.790;37.572;2023-03-01T13:36:01;99208.66;;;0.65;48.96
20228;BME280;12195;55.790;37.572;2023-03-01T13:38:44;99203.03;;;0.48;48.41
20228;BME280;12195;55.790;37.572;2023-03-01T13:41:17;99220.27;;;0.48;49.29
20228;BME280;12195;55.790;37.572;2023-03-01T13:43:49;99209.27;;;0.40;48.01
20228;BME280;12195;55.790;37.572;2023-03-01T13:46:23;99189.56;;;0.36;47.81
20228;BME280;12195;55.790;37.572;2023-03-01T13:48:57;99194.13;;;0.23;48.48
20228;BME280;12195;55.790;37.572;2023-03-01T13:51:30;99196.08;;;0.12;49.26
20228;BME280;12195;55.790;37.572;2023-03-01T13:54:03;99209.91;;;0.09;49.21
20228;BME280;12195;55.790;37.572;2023-03-01T13:56:40;99198.89;;;0.01;49.87
20228;BME280;12195;55.790;37.572;2023-03-01T13:59:21;99208.36;;;0.03;50.17
20228;BME280;12195;55.790;37.572;2023-03-01T14:01:55;99187.66;;;0.04;50.21
20228;BME280;12195;55.790;37.572;2023-03-01T14:04:31;99195.59;;;-0.05;50.40
20228;BME280;12195;55.790;37.572;2023-03-01T14:07:16;99193.91;;;-0.06;50.97
20228;BME280;12195;55.790;37.572;2023-03-01T14:09:48;99186.14;;;-0.05;50.53
20228;BME280;12195;55.790;37.572;2023-03-01T14:18:21;99183.16;;;-0.28;50.86
20228;BME280;12195;55.790;37.572;2023-03-01T14:20:53;99192.54;;;-0.24;50.56
20228;BME280;12195;55.790;37.572;2023-03-01T14:23:26;99186.68;;;-0.32;50.96
20228;BME280;12195;55.790;37.572;2023-03-01T14:25:58;99171.53;;;-0.47;51.66
20228;BME280;12195;55.790;37.572;2023-03-01T14:28:32;99167.29;;;-0.49;51.96
20228;BME280;12195;55.790;37.572;2023-03-01T14:33:56;99164.78;;;-0.54;51.96
20228;BME280;12195;55.790;37.572;2023-03-01T14:36:31;99163.90;;;-0.53;51.72
20228;BME280;12195;55.790;37.572;2023-03-01T14:39:15;99160.52;;;-0.55;52.07
20228;BME280;12195;55.790;37.572;2023-03-01T14:41:39;99164.11;;;-0.63;52.43
20228;BME280;12195;55.790;37.572;2023-03-01T14:44:22;99164.16;;;-0.66;52.62
20228;BME280;12195;55.790;37.572;2023-03-01T14:46:56;99153.98;;;-0.72;53.04
20228;BME280;12195;55.790;37.572;2023-03-01T14:49:30;99148.84;;;-0.74;53.14
20228;BME280;12195;55.790;37.572;2023-03-01T14:52:18;99144.61;;;-0.76;53.54
20228;BME280;12195;55.790;37.572;2023-03-01T14:54:52;99148.84;;;-0.74;53.92
20228;BME280;12195;55.790;37.572;2023-03-01T14:57:26;99158.47;;;-0.83;54.20
20228;BME280;12195;55.790;37.572;2023-03-01T15:00:01;99162.93;;;-0.93;54.91
20228;BME280;12195;55.790;37.572;2023-03-01T15:02:36;99165.29;;;-0.81;54.63
20228;BME280;12195;55.790;37.572;2023-03-01T15:05:13;99160.95;;;-0.77;54.45
20228;BME280;12195;55.790;37.572;2023-03-01T15:07:45;99155.26;;;-0.94;54.78